sensor_id;sensor_type;location;lat;lon;timestamp;noise_LAeq;noise_LA_min;noise_LA_max;noise_LA01;noise_LA95
72736;Laerm;60856;53.238;10.448;2023-09-18T05:02:18;54.69;53.50;55.71;;
72736;Laerm;60856;53.238;10.448;2023-09-18T05:04:43;54.76;53.73;55.86;;
72736;Laerm;60856;53.238;10.448;2023-09-18T05:07:08;54.83;53.83;55.91;;
72736;Laerm;60856;53.238;10.448;2023-09-18T05:09:34;54.86;53.80;56.31;;
72736;Laerm;60856;53.238;10.448;2023-09-18T05:12:00;54.81;53.65;55.97;;
72736;Laerm;60856;53.238;10.448;2023-09-18T05:14:25;54.83;53.80;55.82;;
72736;Laerm;60856;53.238;10.448;2023-09-18T05:16:50;54.93;53.71;56.15;;
72736;Laerm;60856;53.238;10.448;2023-09-18T05:19:16;55.16;54.05;56.15;;
72736;Laerm;60856;53.238;10.448;2023-09-18T05:21:41;55.39;54.35;56.57;;
72736;Laerm;60856;53.238;10.448;2023-09-18T05:24:07;55.38;54.11;56.49;;
72736;Laerm;60856;53.238;10.448;2023-09-18T05:26:32;55.11;53.97;56.27;;
72736;Laerm;60856;53.238;10.448;2023-09-18T05:28:58;55.26;54.13;56.48;;
72736;Laerm;60856;53.238;10.448;2023-09-18T05:31:23;55.22;54.01;56.25;;
72736;Laerm;60856;53.238;10.448;2023-09-18T05:33:49;55.29;54.16;56.46;;
72736;Laerm;60856;53.238;10.448;2023-09-18T05:36:14;55.32;53.91;56.41;;
72736;Laerm;60856;53.238;10.448;2023-09-18T05:38:39;55.35;54.08;56.43;;
72736;Laerm;60856;53.238;10.448;2023-09-18T05:41:05;55.41;54.46;56.46;;
72736;Laerm;60856;53.238;10.448;2023-09-18T05:43:30;55.41;54.39;56.43;;
72736;Laerm;60856;53.238;10.448;2023-09-18T05:45:56;55.46;54.10;56.42;;
72736;Laerm;60856;53.238;10.448;2023-09-18T05:48:21;55.50;54.34;56.42;;
72736;Laerm;60856;53.238;10.448;2023-09-18T05:50:46;56.10;54.58;57.68;;
72736;Laerm;60856;53.238;10.448;2023-09-18T05:53:12;57.11;56.01;58.08;;
72736;Laerm;60856;53.238;10.448;2023-09-18T05:55:38;56.36;55.19;57.81;;
72736;Laerm;60856;53.238;10.448;2023-09-18T05:58:04;56.22;55.20;57.28;;
72736;Laerm;60856;53.238;10.448;2023-09-18T06:00:29;56.52;55.33;57.51;;
72736;Laerm;60856;53.238;10.448;2023-09-18T06:02:55;56.84;55.46;58.06;;
72736;Laerm;60856;53.238;10.448;2023-09-18T06:05:21;57.38;56.25;58.57;;
72736;Laerm;60856;53.238;10.448;2023-09-18T06:07:47;57.68;56.22;58.80;;
72736;Laerm;60856;53.238;10.448;2023-09-18T06:10:12;57.97;57.00;58.97;;
72736;Laerm;60856;53.238;10.448;2023-09-18T06:12:38;57.93;56.86;58.80;;
72736;Laerm;60856;53.238;10.448;2023-09-18T06:15:04;57.93;56.90;58.90;;
72736;Laerm;60856;53.238;10.448;2023-09-18T06:17:30;57.70;56.41;58.72;;
72736;Laerm;60856;53.238;10.448;2023-09-18T06:19:55;57.12;56.12;58.14;;
72736;Laerm;60856;53.238;10.448;2023-09-18T06:22:21;57.14;56.17;58.15;;
72736;Laerm;60856;53.238;10.448;2023-09-18T06:24:46;57.82;56.00;58.77;;
72736;Laerm;60856;53.238;10.448;2023-09-18T06:27:11;57.52;56.45;58.50;;
72736;Laerm;60856;53.238;10.448;2023-09-18T06:29:37;57.25;56.04;58.22;;
72736;Laerm;60856;53.238;10.448;2023-09-18T06:32:07;57.17;56.11;58.38;;
72736;Laerm;60856;53.238;10.448;2023-09-18T06:34:32;57.15;56.03;58.33;;
72736;Laerm;60856;53.238;10.448;2023-09-18T06:36:58;57.11;56.01;58.32;;
72736;Laerm;60856;53.238;10.448;2023-09-18T06:39:23;56.58;55.55;57.71;;
72736;Laerm;60856;53.238;10.448;2023-09-18T06:41:49;57.10;55.75;58.19;;
72736;Laerm;60856;53.238;10.448;2023-09-18T06:44:15;57.34;56.23;58.27;;
72736;Laerm;60856;53.238;10.448;2023-09-18T06:46:40;56.95;55.85;58.40;;
72736;Laerm;60856;53.238;10.448;2023-09-18T06:49:05;56.82;55.79;57.99;;
72736;Laerm;60856;53.238;10.448;2023-09-18T06:51:31;56.80;55.81;57.82;;
72736;Laerm;60856;53.238;10.448;2023-09-18T06:53:56;56.58;55.58;57.58;;
72736;Laerm;60856;53.238;10.448;2023-09-18T06:56:27;56.22;55.13;57.31;;
72736;Laerm;60856;53.238;10.448;2023-09-18T06:58:52;56.04;55.05;57.41;;
72736;Laerm;60856;53.238;10.448;2023-09-18T07:01:18;55.93;54.98;56.96;;
72736;Laerm;60856;53.238;10.448;2023-09-18T07:03:44;56.13;55.06;57.33;;
72736;Laerm;60856;53.238;10.448;2023-09-18T07:06:12;56.10;55.03;57.12;;
72736;Laerm;60856;53.238;10.448;2023-09-18T07:08:37;56.12;55.12;57.07;;
72736;Laerm;60856;53.238;10.448;2023-09-18T07:11:02;56.17;55.01;57.14;;
72736;Laerm;60856;53.238;10.448;2023-09-18T07:13:27;56.06;55.14;57.20;;
72736;Laerm;60856;53.238;10.448;2023-09-18T07:15:53;55.89;54.89;57.00;;
72736;Laerm;60856;53.238;10.448;2023-09-18T07:18:18;55.75;54.77;56.79;;
72736;Laerm;60856;53.238;10.448;2023-09-18T07:20:43;55.66;54.45;56.60;;
72736;Laerm;60856;53.238;10.448;2023-09-18T07:23:09;55.69;54.61;56.64;;
72736;Laerm;60856;53.238;10.448;2023-09-18T07:25:34;55.80;54.72;56.70;;
72736;Laerm;60856;53.238;10.448;2023-09-18T07:27:59;56.19;55.07;57.38;;
72736;Laerm;60856;53.238;10.448;2023-09-18T07:30:25;56.30;55.36;57.30;;
72736;Laerm;60856;53.238;10.448;2023-09-18T07:32:52;56.23;55.31;57.36;;
72736;Laerm;60856;53.238;10.448;2023-09-18T07:35:21;56.18;55.11;57.12;;
72736;Laerm;60856;53.238;10.448;2023-09-18T07:37:47;56.33;55.34;57.24;;
72736;Laerm;60856;53.238;10.448;2023-09-18T07:40:13;56.39;55.35;57.39;;
72736;Laerm;60856;53.238;10.448;2023-09-18T07:42:38;56.41;55.25;57.52;;
72736;Laerm;60856;53.238;10.448;2023-09-18T07:45:04;56.45;55.29;57.70;;
72736;Laerm;60856;53.238;10.448;2023-09-18T07:47:29;56.49;55.40;57.44;;
72736;Laerm;60856;53.238;10.448;2023-09-18T07:49:56;56.46;55.35;57.43;;
72736;Laerm;60856;53.238;10.448;2023-09-18T07:52:21;56.48;55.42;57.47;;
72736;Laerm;60856;53.238;10.448;2023-09-18T07:54:47;56.48;55.26;57.36;;
72736;Laerm;60856;53.238;10.448;2023-09-18T07:57:12;56.46;55.32;57.38;;
72736;Laerm;60856;53.238;10.448;2023-09-18T07:59:38;56.40;55.32;57.35;;
72736;Laerm;60856;53.238;10.448;2023-09-18T08:02:07;56.30;55.25;57.28;;
72736;Laerm;60856;53.238;10.448;2023-09-18T08:04:34;56.19;55.13;57.19;;
72736;Laerm;60856;53.238;10.448;2023-09-18T08:06:59;56.06;55.04;57.04;;
72736;Laerm;60856;53.238;10.448;2023-09-18T08:09:25;55.95;54.96;56.94;;
72736;Laerm;60856;53.238;10.448;2023-09-18T08:11:50;55.85;54.86;56.94;;
72736;Laerm;60856;53.238;10.448;2023-09-18T08:14:20;55.79;54.65;56.80;;
72736;Laerm;60856;53.238;10.448;2023-09-18T08:16:45;55.74;54.60;56.76;;
72736;Laerm;60856;53.238;10.448;2023-09-18T08:19:10;55.71;54.52;56.72;;
72736;Laerm;60856;53.238;10.448;2023-09-18T08:21:36;55.74;54.75;56.83;;
72736;Laerm;60856;53.238;10.448;2023-09-18T08:24:01;55.82;54.88;56.73;;
72736;Laerm;60856;53.238;10.448;2023-09-18T08:26:27;55.87;54.85;56.75;;
72736;Laerm;60856;53.238;10.448;2023-09-18T08:28:53;55.88;54.86;56.86;;
72736;Laerm;60856;53.238;10.448;2023-09-18T08:31:18;55.84;54.84;56.73;;
72736;Laerm;60856;53.238;10.448;2023-09-18T08:33:43;55.83;54.71;56.84;;
72736;Laerm;60856;53.238;10.448;2023-09-18T08:36:09;55.83;54.84;57.01;;
72736;Laerm;60856;53.238;10.448;2023-09-18T08:38:34;55.83;54.80;56.95;;
72736;Laerm;60856;53.238;10.448;2023-09-18T08:40:59;55.91;54.61;57.06;;
72736;Laerm;60856;53.238;10.448;2023-09-18T08:43:25;55.98;54.91;57.10;;
72736;Laerm;60856;53.238;10.448;2023-09-18T08:45:51;55.97;54.94;56.96;;
72736;Laerm;60856;53.238;10.448;2023-09-18T08:48:17;55.91;54.81;56.85;;
72736;Laerm;60856;53.238;10.448;2023-09-18T08:50:42;55.78;54.46;56.76;;
72736;Laerm;60856;53.238;10.448;2023-09-18T08:53:08;55.72;54.62;56.81;;
72736;Laerm;60856;53.238;10.448;2023-09-18T08:55:36;55.70;54.56;56.66;;
72736;Laerm;60856;53.238;10.448;2023-09-18T08:58:01;55.60;54.64;56.57;;
72736;Laerm;60856;53.238;10.448;2023-09-18T09:00:26;55.52;54.39;56.65;;
72736;Laerm;60856;53.238;10.448;2023-09-18T09:02:52;55.54;54.39;56.59;;
72736;Laerm;60856;53.238;10.448;2023-09-18T09:05:19;55.58;54.49;56.58;;
72736;Laerm;60856;53.238;10.448;2023-09-18T09:07:44;55.67;54.62;56.68;;
72736;Laerm;60856;53.238;10.448;2023-09-18T09:10:09;55.75;54.65;56.61;;
72736;Laerm;60856;53.238;10.448;2023-09-18T09:15:19;55.83;54.78;56.75;;
72736;Laerm;60856;53.238;10.448;2023-09-18T09:17:44;55.96;55.00;57.00;;
72736;Laerm;60856;53.238;10.448;2023-09-18T09:20:10;56.09;54.93;57.03;;
72736;Laerm;60856;53.238;10.448;2023-09-18T09:22:39;56.22;55.05;57.24;;
72736;Laerm;60856;53.238;10.448;2023-09-18T09:25:16;56.37;55.31;57.46;;
72736;Laerm;60856;53.238;10.448;2023-09-18T09:27:46;56.33;55.29;57.47;;
72736;Laerm;60856;53.238;10.448;2023-09-18T09:30:13;56.39;55.42;57.36;;
72736;Laerm;60856;53.238;10.448;2023-09-18T09:32:46;56.35;55.11;57.44;;
72736;Laerm;60856;53.238;10.448;2023-09-18T09:35:18;56.33;55.10;57.33;;
72736;Laerm;60856;53.238;10.448;2023-09-18T09:37:43;56.35;55.41;57.38;;
72736;Laerm;60856;53.238;10.448;2023-09-18T09:40:09;56.42;55.43;57.44;;
72736;Laerm;60856;53.238;10.448;2023-09-18T09:42:39;56.47;55.43;57.53;;
72736;Laerm;60856;53.238;10.448;2023-09-18T09:45:10;56.46;55.29;57.60;;
72736;Laerm;60856;53.238;10.448;2023-09-18T09:47:37;56.48;55.10;57.44;;
72736;Laerm;60856;53.238;10.448;2023-09-18T09:50:12;56.55;55.64;57.45;;
72736;Laerm;60856;53.238;10.448;2023-09-18T09:52:41;56.58;55.49;57.54;;
72736;Laerm;60856;53.238;10.448;2023-09-18T09:57:50;56.50;55.47;57.59;;
72736;Laerm;60856;53.238;10.448;2023-09-18T10:00:16;56.43;55.48;57.36;;
72736;Laerm;60856;53.238;10.448;2023-09-18T10:03:12;56.38;55.40;57.53;;
72736;Laerm;60856;53.238;10.448;2023-09-18T10:05:38;56.32;55.27;57.23;;
72736;Laerm;60856;53.238;10.448;2023-09-18T10:08:14;56.31;55.31;57.22;;
72736;Laerm;60856;53.238;10.448;2023-09-18T10:10:48;56.29;55.37;57.23;;
72736;Laerm;60856;53.238;10.448;2023-09-18T10:13:17;56.20;55.09;57.24;;
72736;Laerm;60856;53.238;10.448;2023-09-18T10:15:44;56.10;55.09;57.18;;
72736;Laerm;60856;53.238;10.448;2023-09-18T10:18:17;56.03;55.03;57.01;;
72736;Laerm;60856;53.238;10.448;2023-09-18T10:20:45;55.98;54.97;56.97;;
72736;Laerm;60856;53.238;10.448;2023-09-18T10:23:20;56.01;55.02;57.14;;
72736;Laerm;60856;53.238;10.448;2023-09-18T10:25:50;56.11;55.07;57.22;;
72736;Laerm;60856;53.238;10.448;2023-09-18T10:28:16;56.16;55.14;57.15;;
72736;Laerm;60856;53.238;10.448;2023-09-18T10:30:42;56.07;55.10;57.00;;
72736;Laerm;60856;53.238;10.448;2023-09-18T10:33:07;56.00;54.84;56.92;;
72736;Laerm;60856;53.238;10.448;2023-09-18T10:35:33;55.89;54.84;57.09;;
72736;Laerm;60856;53.238;10.448;2023-09-18T10:38:01;55.82;54.71;57.09;;
72736;Laerm;60856;53.238;10.448;2023-09-18T10:40:27;55.81;54.60;56.75;;
72736;Laerm;60856;53.238;10.448;2023-09-18T10:42:53;55.84;54.76;56.83;;
72736;Laerm;60856;53.238;10.448;2023-09-18T10:45:19;55.93;55.00;57.01;;
72736;Laerm;60856;53.238;10.448;2023-09-18T10:47:44;55.97;54.97;57.20;;
72736;Laerm;60856;53.238;10.448;2023-09-18T10:50:11;56.07;55.07;57.24;;
72736;Laerm;60856;53.238;10.448;2023-09-18T10:52:43;56.16;55.05;57.33;;
72736;Laerm;60856;53.238;10.448;2023-09-18T10:55:13;56.06;55.00;57.09;;
72736;Laerm;60856;53.238;10.448;2023-09-18T10:57:49;55.95;54.71;57.10;;
72736;Laerm;60856;53.238;10.448;2023-09-18T11:00:14;55.96;54.72;56.96;;
72736;Laerm;60856;53.238;10.448;2023-09-18T11:02:41;56.04;55.06;57.13;;
72736;Laerm;60856;53.238;10.448;2023-09-18T11:05:07;56.10;55.08;56.96;;
72736;Laerm;60856;53.238;10.448;2023-09-18T11:07:32;56.10;54.94;57.05;;
72736;Laerm;60856;53.238;10.448;2023-09-18T11:09:57;56.15;55.23;57.11;;
72736;Laerm;60856;53.238;10.448;2023-09-18T11:12:41;56.29;55.34;57.28;;
72736;Laerm;60856;53.238;10.448;2023-09-18T11:15:07;56.42;55.15;57.49;;
72736;Laerm;60856;53.238;10.448;2023-09-18T11:22:40;56.35;55.36;57.55;;
72736;Laerm;60856;53.238;10.448;2023-09-18T11:27:56;56.16;55.06;57.17;;
72736;Laerm;60856;53.238;10.448;2023-09-18T11:30:22;56.16;55.18;57.18;;
72736;Laerm;60856;53.238;10.448;2023-09-18T11:32:48;56.19;55.17;57.24;;
72736;Laerm;60856;53.238;10.448;2023-09-18T11:35:14;56.29;55.14;57.31;;
72736;Laerm;60856;53.238;10.448;2023-09-18T11:37:42;56.42;55.31;57.59;;
72736;Laerm;60856;53.238;10.448;2023-09-18T11:40:26;56.53;55.40;57.51;;
72736;Laerm;60856;53.238;10.448;2023-09-18T11:45:36;56.48;55.43;57.49;;
72736;Laerm;60856;53.238;10.448;2023-09-18T11:48:02;56.39;55.30;57.42;;
72736;Laerm;60856;53.238;10.448;2023-09-18T11:50:27;56.27;55.35;57.26;;
72736;Laerm;60856;53.238;10.448;2023-09-18T11:52:58;56.17;55.13;57.32;;
72736;Laerm;60856;53.238;10.448;2023-09-18T11:55:23;56.13;55.13;57.12;;
72736;Laerm;60856;53.238;10.448;2023-09-18T11:57:49;56.03;54.96;57.13;;
72736;Laerm;60856;53.238;10.448;2023-09-18T12:00:18;56.00;54.99;57.15;;
72736;Laerm;60856;53.238;10.448;2023-09-18T12:02:47;56.01;54.99;57.10;;
72736;Laerm;60856;53.238;10.448;2023-09-18T12:05:16;56.02;54.91;57.34;;
72736;Laerm;60856;53.238;10.448;2023-09-18T12:07:43;56.05;55.13;57.15;;
72736;Laerm;60856;53.238;10.448;2023-09-18T12:10:10;56.27;55.12;57.62;;
72736;Laerm;60856;53.238;10.448;2023-09-18T12:12:35;56.37;55.28;57.44;;
72736;Laerm;60856;53.238;10.448;2023-09-18T12:15:01;56.29;55.32;57.34;;
72736;Laerm;60856;53.238;10.448;2023-09-18T12:17:26;56.25;55.18;57.16;;
72736;Laerm;60856;53.238;10.448;2023-09-18T12:19:55;56.29;55.25;57.28;;
72736;Laerm;60856;53.238;10.448;2023-09-18T12:22:27;56.29;55.29;57.40;;
72736;Laerm;60856;53.238;10.448;2023-09-18T12:24:53;56.34;55.22;57.25;;
72736;Laerm;60856;53.238;10.448;2023-09-18T12:27:18;56.51;55.43;57.47;;
72736;Laerm;60856;53.238;10.448;2023-09-18T12:29:44;56.65;55.72;57.73;;
72736;Laerm;60856;53.238;10.448;2023-09-18T12:32:09;56.70;55.67;57.68;;
72736;Laerm;60856;53.238;10.448;2023-09-18T12:34:40;56.67;55.76;57.61;;
72736;Laerm;60856;53.238;10.448;2023-09-18T12:37:05;56.54;55.53;57.44;;
72736;Laerm;60856;53.238;10.448;2023-09-18T12:39:31;56.53;55.54;57.41;;
72736;Laerm;60856;53.238;10.448;2023-09-18T12:41:57;56.42;55.34;57.58;;
72736;Laerm;60856;53.238;10.448;2023-09-18T12:44:22;56.25;55.19;57.45;;
72736;Laerm;60856;53.238;10.448;2023-09-18T12:46:48;56.16;54.93;57.17;;
72736;Laerm;60856;53.238;10.448;2023-09-18T12:49:19;56.03;55.04;56.97;;
72736;Laerm;60856;53.238;10.448;2023-09-18T12:51:53;56.05;55.18;57.27;;
72736;Laerm;60856;53.238;10.448;2023-09-18T12:54:18;56.26;55.22;57.49;;
72736;Laerm;60856;53.238;10.448;2023-09-18T12:56:43;56.19;55.17;57.22;;
72736;Laerm;60856;53.238;10.448;2023-09-18T12:59:09;56.21;55.04;57.10;;
72736;Laerm;60856;53.238;10.448;2023-09-18T13:01:34;56.25;55.25;57.20;;
72736;Laerm;60856;53.238;10.448;2023-09-18T13:04:03;56.28;55.35;57.25;;
72736;Laerm;60856;53.238;10.448;2023-09-18T13:06:30;56.31;55.39;57.39;;
72736;Laerm;60856;53.238;10.448;2023-09-18T13:08:56;56.42;55.32;57.69;;
72736;Laerm;60856;53.238;10.448;2023-09-18T13:11:51;56.48;55.49;57.52;;
72736;Laerm;60856;53.238;10.448;2023-09-18T13:14:17;56.44;55.39;57.47;;
72736;Laerm;60856;53.238;10.448;2023-09-18T13:16:42;56.43;55.44;57.34;;
72736;Laerm;60856;53.238;10.448;2023-09-18T13:19:07;56.35;55.37;57.41;;
72736;Laerm;60856;53.238;10.448;2023-09-18T13:21:32;56.30;55.13;57.41;;
72736;Laerm;60856;53.238;10.448;2023-09-18T13:23:58;56.16;55.07;57.34;;
72736;Laerm;60856;53.238;10.448;2023-09-18T13:26:24;55.97;54.88;57.04;;
72736;Laerm;60856;53.238;10.448;2023-09-18T13:28:49;55.87;54.59;56.82;;
72736;Laerm;60856;53.238;10.448;2023-09-18T13:31:14;55.82;54.80;56.89;;
72736;Laerm;60856;53.238;10.448;2023-09-18T13:33:40;55.82;54.67;56.99;;
72736;Laerm;60856;53.238;10.448;2023-09-18T13:36:05;55.74;54.64;56.79;;
72736;Laerm;60856;53.238;10.448;2023-09-18T13:38:31;55.77;54.74;56.96;;
72736;Laerm;60856;53.238;10.448;2023-09-18T13:40:56;55.79;54.69;56.87;;
72736;Laerm;60856;53.238;10.448;2023-09-18T13:43:21;55.89;54.83;56.88;;
72736;Laerm;60856;53.238;10.448;2023-09-18T13:45:48;55.94;54.83;56.99;;
72736;Laerm;60856;53.238;10.448;2023-09-18T13:48:16;55.97;54.82;56.99;;
72736;Laerm;60856;53.238;10.448;2023-09-18T13:50:42;55.97;54.80;56.96;;
72736;Laerm;60856;53.238;10.448;2023-09-18T13:53:07;55.91;54.80;56.89;;
72736;Laerm;60856;53.238;10.448;2023-09-18T13:55:33;55.88;54.90;56.79;;
72736;Laerm;60856;53.238;10.448;2023-09-18T13:57:58;55.89;54.74;57.04;;
72736;Laerm;60856;53.238;10.448;2023-09-18T14:00:24;55.89;54.78;56.96;;
72736;Laerm;60856;53.238;10.448;2023-09-18T14:02:50;55.86;54.72;56.96;;
72736;Laerm;60856;53.238;10.448;2023-09-18T14:05:16;55.80;54.79;56.83;;
72736;Laerm;60856;53.238;10.448;2023-09-18T14:07:41;55.77;54.77;57.06;;
72736;Laerm;60856;53.238;10.448;2023-09-18T14:10:07;55.81;54.83;56.95;;
72736;Laerm;60856;53.238;10.448;2023-09-18T14:12:33;55.85;54.85;56.92;;
72736;Laerm;60856;53.238;10.448;2023-09-18T14:14:58;55.87;54.95;56.88;;
72736;Laerm;60856;53.238;10.448;2023-09-18T14:17:24;55.86;54.48;56.85;;
72736;Laerm;60856;53.238;10.448;2023-09-18T14:19:50;55.84;54.70;56.82;;
72736;Laerm;60856;53.238;10.448;2023-09-18T14:22:17;55.79;54.89;56.92;;
72736;Laerm;60856;53.238;10.448;2023-09-18T14:24:42;55.76;54.57;56.91;;
72736;Laerm;60856;53.238;10.448;2023-09-18T14:27:07;55.71;54.68;56.69;;
72736;Laerm;60856;53.238;10.448;2023-09-18T14:29:33;55.69;54.64;56.77;;
72736;Laerm;60856;53.238;10.448;2023-09-18T14:31:58;55.69;54.60;56.86;;
72736;Laerm;60856;53.238;10.448;2023-09-18T14:34:24;55.71;54.69;56.86;;
72736;Laerm;60856;53.238;10.448;2023-09-18T14:36:49;55.71;54.58;56.81;;
72736;Laerm;60856;53.238;10.448;2023-09-18T14:39:14;55.69;54.59;56.87;;
72736;Laerm;60856;53.238;10.448;2023-09-18T14:41:39;55.71;54.66;56.94;;
72736;Laerm;60856;53.238;10.448;2023-09-18T14:44:05;55.75;54.70;56.73;;
72736;Laerm;60856;53.238;10.448;2023-09-18T14:46:31;55.77;54.74;56.85;;
72736;Laerm;60856;53.238;10.448;2023-09-18T14:48:59;55.74;54.68;56.68;;
72736;Laerm;60856;53.238;10.448;2023-09-18T14:51:26;55.71;54.65;56.73;;
72736;Laerm;60856;53.238;10.448;2023-09-18T14:53:51;55.70;54.64;56.70;;
72736;Laerm;60856;53.238;10.448;2023-09-18T14:56:16;55.68;54.72;56.77;;
72736;Laerm;60856;53.238;10.448;2023-09-18T14:58:41;55.68;54.58;56.63;;
72736;Laerm;60856;53.238;10.448;2023-09-18T15:01:08;55.65;54.60;57.01;;
72736;Laerm;60856;53.238;10.448;2023-09-18T15:03:34;55.63;54.42;56.73;;
72736;Laerm;60856;53.238;10.448;2023-09-18T15:06:02;55.63;54.47;56.59;;
72736;Laerm;60856;53.238;10.448;2023-09-18T15:08:27;55.63;54.61;56.80;;
72736;Laerm;60856;53.238;10.448;2023-09-18T15:10:53;55.62;54.31;56.53;;
72736;Laerm;60856;53.238;10.448;2023-09-18T15:13:18;55.61;54.48;56.67;;
72736;Laerm;60856;53.238;10.448;2023-09-18T15:15:43;55.59;54.57;56.58;;
72736;Laerm;60856;53.238;10.448;2023-09-18T15:18:09;55.57;54.53;56.63;;
72736;Laerm;60856;53.238;10.448;2023-09-18T15:20:34;55.57;54.58;56.63;;
72736;Laerm;60856;53.238;10.448;2023-09-18T15:23:00;55.55;54.49;56.54;;
72736;Laerm;60856;53.238;10.448;2023-09-18T15:25:25;55.55;54.54;56.69;;
72736;Laerm;60856;53.238;10.448;2023-09-18T15:27:53;55.53;54.56;56.49;;
72736;Laerm;60856;53.238;10.448;2023-09-18T15:30:19;55.52;54.58;56.58;;
72736;Laerm;60856;53.238;10.448;2023-09-18T15:32:51;55.51;54.41;56.52;;
72736;Laerm;60856;53.238;10.448;2023-09-18T15:35:18;55.53;54.31;56.54;;
72736;Laerm;60856;53.238;10.448;2023-09-18T15:37:43;55.53;54.51;56.59;;
72736;Laerm;60856;53.238;10.448;2023-09-18T15:40:09;55.53;54.39;56.54;;
72736;Laerm;60856;53.238;10.448;2023-09-18T15:42:35;55.54;54.28;56.45;;
72736;Laerm;60856;53.238;10.448;2023-09-18T15:45:00;55.53;54.46;56.84;;
72736;Laerm;60856;53.238;10.448;2023-09-18T15:47:26;55.52;54.35;56.45;;
72736;Laerm;60856;53.238;10.448;2023-09-18T15:49:51;55.51;54.45;56.53;;
72736;Laerm;60856;53.238;10.448;2023-09-18T15:52:16;55.49;54.36;56.58;;
72736;Laerm;60856;53.238;10.448;2023-09-18T15:54:41;55.47;54.39;56.45;;
72736;Laerm;60856;53.238;10.448;2023-09-18T15:57:09;55.46;54.43;56.39;;
72736;Laerm;60856;53.238;10.448;2023-09-18T15:59:34;55.45;54.31;56.47;;
72736;Laerm;60856;53.238;10.448;2023-09-18T16:02:00;55.42;54.43;56.48;;
72736;Laerm;60856;53.238;10.448;2023-09-18T16:04:25;55.41;54.31;56.47;;
72736;Laerm;60856;53.238;10.448;2023-09-18T16:06:50;55.39;54.21;56.43;;
72736;Laerm;60856;53.238;10.448;2023-09-18T16:09:16;55.38;54.16;56.40;;
72736;Laerm;60856;53.238;10.448;2023-09-18T16:11:41;55.37;54.28;56.42;;
72736;Laerm;60856;53.238;10.448;2023-09-18T16:14:07;55.37;54.34;56.45;;
72736;Laerm;60856;53.238;10.448;2023-09-18T16:16:32;55.47;54.22;56.60;;
72736;Laerm;60856;53.238;10.448;2023-09-18T16:18:58;55.53;54.38;56.68;;
72736;Laerm;60856;53.238;10.448;2023-09-18T16:21:24;55.54;54.59;56.49;;
72736;Laerm;60856;53.238;10.448;2023-09-18T16:23:50;55.48;54.38;56.59;;
72736;Laerm;60856;53.238;10.448;2023-09-18T16:26:15;55.51;54.48;56.53;;
72736;Laerm;60856;53.238;10.448;2023-09-18T16:28:40;55.47;54.30;56.55;;
72736;Laerm;60856;53.238;10.448;2023-09-18T16:31:06;55.49;54.52;56.65;;
72736;Laerm;60856;53.238;10.448;2023-09-18T16:33:33;55.48;54.38;56.49;;
72736;Laerm;60856;53.238;10.448;2023-09-18T16:35:59;55.47;54.41;56.63;;
72736;Laerm;60856;53.238;10.448;2023-09-18T16:38:24;55.40;54.34;56.49;;
72736;Laerm;60856;53.238;10.448;2023-09-18T16:40:49;55.33;54.24;56.30;;
72736;Laerm;60856;53.238;10.448;2023-09-18T16:43:15;55.30;54.25;56.35;;
72736;Laerm;60856;53.238;10.448;2023-09-18T16:45:41;55.26;54.22;56.31;;
72736;Laerm;60856;53.238;10.448;2023-09-18T16:48:08;55.23;53.93;56.28;;
72736;Laerm;60856;53.238;10.448;2023-09-18T16:50:33;55.21;54.03;56.19;;
72736;Laerm;60856;53.238;10.448;2023-09-18T16:52:59;55.20;54.12;56.53;;
72736;Laerm;60856;53.238;10.448;2023-09-18T16:55:24;55.15;53.98;56.25;;
72736;Laerm;60856;53.238;10.448;2023-09-18T16:57:49;55.14;54.07;56.33;;
72736;Laerm;60856;53.238;10.448;2023-09-18T17:00:17;55.13;54.07;56.25;;
72736;Laerm;60856;53.238;10.448;2023-09-18T17:02:43;55.13;54.08;56.13;;
72736;Laerm;60856;53.238;10.448;2023-09-18T17:05:09;55.12;54.03;56.09;;
72736;Laerm;60856;53.238;10.448;2023-09-18T17:07:34;55.11;54.06;56.19;;
72736;Laerm;60856;53.238;10.448;2023-09-18T17:09:59;55.09;53.96;56.20;;
72736;Laerm;60856;53.238;10.448;2023-09-18T17:12:24;55.06;54.06;56.11;;
72736;Laerm;60856;53.238;10.448;2023-09-18T17:14:52;55.04;53.99;56.12;;
72736;Laerm;60856;53.238;10.448;2023-09-18T17:17:17;55.04;53.90;56.23;;
72736;Laerm;60856;53.238;10.448;2023-09-18T17:19:44;55.03;53.88;56.13;;
72736;Laerm;60856;53.238;10.448;2023-09-18T17:22:10;55.03;54.02;56.06;;
72736;Laerm;60856;53.238;10.448;2023-09-18T17:24:35;55.03;54.03;56.15;;
72736;Laerm;60856;53.238;10.448;2023-09-18T17:27:03;55.01;54.00;56.11;;
72736;Laerm;60856;53.238;10.448;2023-09-18T17:29:29;55.01;54.03;56.03;;
72736;Laerm;60856;53.238;10.448;2023-09-18T18:10:44;54.95;54.01;55.92;;
72736;Laerm;60856;53.238;10.448;2023-09-18T18:13:09;54.96;53.63;55.91;;
72736;Laerm;60856;53.238;10.448;2023-09-18T18:15:35;54.96;53.87;55.89;;
72736;Laerm;60856;53.238;10.448;2023-09-18T18:18:03;54.96;53.66;56.14;;
72736;Laerm;60856;53.238;10.448;2023-09-18T18:20:31;54.95;53.82;56.06;;
72736;Laerm;60856;53.238;10.448;2023-09-18T18:23:00;54.96;53.95;55.98;;
72736;Laerm;60856;53.238;10.448;2023-09-18T18:25:28;54.95;53.76;56.26;;
72736;Laerm;60856;53.238;10.448;2023-09-18T18:27:57;54.95;53.84;56.05;;
72736;Laerm;60856;53.238;10.448;2023-09-18T18:30:23;54.94;53.93;56.03;;
72736;Laerm;60856;53.238;10.448;2023-09-18T18:43:10;54.93;53.86;56.14;;
72736;Laerm;60856;53.238;10.448;2023-09-18T18:45:44;54.93;53.88;56.04;;
72736;Laerm;60856;53.238;10.448;2023-09-18T18:48:11;54.93;53.77;56.11;;
72736;Laerm;60856;53.238;10.448;2023-09-18T18:53:41;54.91;53.92;55.99;;
72736;Laerm;60856;53.238;10.448;2023-09-18T18:56:31;54.91;53.77;55.98;;
72736;Laerm;60856;53.238;10.448;2023-09-18T18:59:19;54.90;53.83;56.16;;
72736;Laerm;60856;53.238;10.448;2023-09-18T19:01:53;54.90;53.89;55.93;;
72736;Laerm;60856;53.238;10.448;2023-09-18T19:04:43;54.90;53.82;56.00;;
72736;Laerm;60856;53.238;10.448;2023-09-18T19:14:01;54.91;53.87;56.02;;
72736;Laerm;60856;53.238;10.448;2023-09-18T19:16:36;54.89;53.73;56.04;;
72736;Laerm;60856;53.238;10.448;2023-09-18T19:19:01;54.90;53.80;55.83;;
72736;Laerm;60856;53.238;10.448;2023-09-18T19:21:28;54.89;53.77;56.10;;
72736;Laerm;60856;53.238;10.448;2023-09-18T19:23:56;54.88;53.86;55.90;;
72736;Laerm;60856;53.238;10.448;2023-09-18T19:26:25;54.87;53.85;56.16;;
72736;Laerm;60856;53.238;10.448;2023-09-18T19:28:56;54.89;53.87;56.05;;
72736;Laerm;60856;53.238;10.448;2023-09-18T19:31:22;54.88;53.66;56.00;;
72736;Laerm;60856;53.238;10.448;2023-09-18T19:33:48;54.88;53.64;55.99;;
72736;Laerm;60856;53.238;10.448;2023-09-18T19:36:13;54.87;53.88;55.95;;
72736;Laerm;60856;53.238;10.448;2023-09-18T19:38:38;54.87;53.84;56.19;;
72736;Laerm;60856;53.238;10.448;2023-09-18T19:41:07;54.86;53.90;56.19;;
72736;Laerm;60856;53.238;10.448;2023-09-18T19:43:39;54.86;53.71;55.95;;
72736;Laerm;60856;53.238;10.448;2023-09-18T19:46:14;54.86;53.70;55.98;;